Andrews, NC

12:12 AM EDT on October 01, 2014 (GMT -0400)
Andrews | Change Station
CLOSE
Current Station
Airport
Location: Andrews,
Elevation: 1696 ft
Nearby Weather Stations

Elev 1696 ft 35.20 °N, 83.86 °W | Updated 17 minutes ago

Clear
Clear
55 °F
Feels Like 55 °F
N
0
Wind Variable Wind from North

Today
High -- | Low -- °F
--% Chance of Precip.
Yesterday
High -- | Low -- °F
Precip. -- in
7:30 AM 7:19 PM
Waxing Crescent, 43% visible
Pressure 30.00 in
Visibility 2.5 miles
Clouds Scattered Clouds 200 ft
Dew Point 55 °F
Humidity 99%
Rainfall 0.00 in
Snow Depth Not available.
UV 0 out of 12
Pollen 4.90 out of 12
Air Quality Not available.
Flu Activity Not available.
METAR KRHP 010355Z AUTO 00000KT 2 1/2SM BR SCT002 13/13 A3000 RMK AO2 T01270126

More Conditions Fewer Conditions

Pressure 30.00 in
Visibility 2.5 miles
Clouds Scattered Clouds 200 ft
Dew Point 55 °F
Humidity 99%
Rainfall 0.00 in
Snow Depth Not available.
UV 0 out of 12
Pollen 4.90 out of 12
Air Quality Not available.
Flu Activity Not available.
METAR KRHP 010355Z AUTO 00000KT 2 1/2SM BR SCT002 13/13 A3000 RMK AO2 T01270126

More Conditions Fewer Conditions

10-Day Weather Forecast

Almanac

Astronomy

Oct. 01, 2014 Rise Set
Actual Time 7:30 AM EDT 7:19 PM EDT
Civil Twilight 7:04 AM EDT 7:44 PM EDT
Nautical Twilight 6:35 AM EDT 8:13 PM EDT
Astronomical Twilight 6:05 AM EDT 8:43 PM EDT
Moon 2:20 PM EDT No Moon Set
Length of Visible Light 12h 39m
Length of Day
11h 49m
Tomorrow will be 2m 11s shorter.
Waxing Crescent, 43% of the Moon is Illuminated
Today
Waxing Crescent
Oct 1
First Quarter
Oct 8
Full
Oct 15
Last Quarter
Oct 23
New

Yesterday's Extremes

State Highs State Lows

Community

WunderPhotos

Upload Photos

1,757,840 photos uploaded!

Nearby

Snow Depth

Station Depth Elevation
No new snow has been reported.

Earthquake Activity

City Distance Mag. Time & Date
No recent earthquake activity has been reported nearby.
Minimum magnitude displayed is 2.5.

Coastal Water Temperatures

Place Temperature
No Stations Reporting

Nearby Weather Stations